createdAt,value
2019-04-16T00:01:35.129Z,10.80
2019-04-16T00:07:18.138Z,11.45
2019-04-16T00:10:06.781Z,10.25
2019-04-16T00:12:42.896Z,12.53
2019-04-16T00:15:11.760Z,12.30
2019-04-16T00:17:44.344Z,9.58
2019-04-16T00:20:13.080Z,12.00
2019-04-16T00:22:43.618Z,11.70
2019-04-16T00:25:12.600Z,10.18
2019-04-16T00:27:41.549Z,9.43
2019-04-16T00:30:10.776Z,10.50
2019-04-16T00:32:42.499Z,9.90
2019-04-16T00:35:10.259Z,11.25
2019-04-16T00:37:39.198Z,8.73
2019-04-16T00:40:08.257Z,10.65
2019-04-16T00:42:37.198Z,9.80
2019-04-16T00:45:06.343Z,10.40
2019-04-16T00:47:35.311Z,10.63
2019-04-16T00:50:14.377Z,10.03
2019-04-16T00:52:43.367Z,9.15
2019-04-16T00:55:14.589Z,8.05
2019-04-16T00:57:48.741Z,11.18
2019-04-16T01:00:18.368Z,9.95
2019-04-16T01:05:46.377Z,8.10
2019-04-16T01:16:48.171Z,9.05
2019-04-16T01:19:41.825Z,8.33
2019-04-16T01:22:10.797Z,8.75
2019-04-16T01:24:41.303Z,10.35
2019-04-16T01:27:10.520Z,8.75
2019-04-16T01:29:39.475Z,9.03
2019-04-16T01:32:32.587Z,10.70
2019-04-16T01:35:19.788Z,8.53
2019-04-16T01:38:09.546Z,9.70
2019-04-16T01:40:40.277Z,8.95
2019-04-16T01:43:09.388Z,7.95
2019-04-16T01:45:38.427Z,9.18
2019-04-16T01:48:08.242Z,9.73
2019-04-16T01:50:37.327Z,9.23
2019-04-16T01:53:12.158Z,8.48
2019-04-16T01:55:50.696Z,9.90
2019-04-16T01:58:24.905Z,8.10
2019-04-16T02:01:01.113Z,7.00
2019-04-16T02:03:30.149Z,9.13
2019-04-16T02:06:03.194Z,9.28
2019-04-16T02:08:31.133Z,9.23
2019-04-16T02:11:00.801Z,9.18
2019-04-16T02:13:32.754Z,10.05
2019-04-16T02:16:01.861Z,9.38
2019-04-16T02:18:30.813Z,8.60
2019-04-16T02:21:01.199Z,8.63
2019-04-16T02:23:30.104Z,10.03
2019-04-16T02:25:59.057Z,9.60
2019-04-16T02:28:28.987Z,10.95
2019-04-16T02:30:58.024Z,9.05
2019-04-16T02:33:26.977Z,9.18
2019-04-16T02:35:55.854Z,9.43
2019-04-16T02:38:24.751Z,10.50
2019-04-16T02:40:53.698Z,10.38
2019-04-16T02:43:22.739Z,11.22
2019-04-16T02:45:56.750Z,9.53
2019-04-16T02:48:22.400Z,10.43
2019-04-16T02:50:53.028Z,9.60
2019-04-16T02:53:38.302Z,10.85
2019-04-16T02:56:19.115Z,9.98
2019-04-16T02:58:49.863Z,11.12
2019-04-16T03:01:32.346Z,9.63
2019-04-16T03:04:06.025Z,9.80
2019-04-16T03:06:35.361Z,10.25
2019-04-16T03:09:08.967Z,9.75
2019-04-16T03:11:36.774Z,12.13
2019-04-16T03:14:05.712Z,11.48
2019-04-16T03:16:38.089Z,12.58
2019-04-16T03:19:08.456Z,10.40
2019-04-16T03:21:37.406Z,11.57
2019-04-16T03:24:09.097Z,12.60
2019-04-16T03:26:36.906Z,11.70
2019-04-16T03:29:05.872Z,13.58
2019-04-16T03:31:34.758Z,12.85
2019-04-16T03:34:03.886Z,9.90
2019-04-16T03:36:32.862Z,11.28
2019-04-16T03:39:01.822Z,14.23
2019-04-16T03:41:30.723Z,14.30
2019-04-16T03:44:03.635Z,14.35
2019-04-16T03:46:30.225Z,14.73
2019-04-16T03:48:59.177Z,16.65
2019-04-16T03:51:28.106Z,14.00
2019-04-16T03:53:57.068Z,11.75
2019-04-16T03:56:27.576Z,12.18
2019-04-16T03:58:56.680Z,11.75
2019-04-16T04:01:25.585Z,14.90
2019-04-16T04:03:57.436Z,12.43
2019-04-16T04:06:25.053Z,12.20
2019-04-16T04:08:54.003Z,11.53
2019-04-16T04:11:22.948Z,11.03
2019-04-16T04:13:51.891Z,14.15
2019-04-16T04:16:20.771Z,12.53
2019-04-16T04:18:49.742Z,14.03
2019-04-16T04:21:26.067Z,14.35
2019-04-16T04:23:57.524Z,13.03
2019-04-16T04:26:25.630Z,17.25
2019-04-16T04:28:54.581Z,15.03
2019-04-16T04:31:23.519Z,11.50
2019-04-16T04:33:52.474Z,11.75
2019-04-16T04:36:31.493Z,11.45
2019-04-16T04:39:00.455Z,13.60
2019-04-16T04:41:29.400Z,13.13
2019-04-16T04:44:04.028Z,16.17
2019-04-16T04:46:28.852Z,15.32
2019-04-16T04:49:00.160Z,15.28
2019-04-16T04:51:28.385Z,12.75
2019-04-16T04:53:57.256Z,13.58
2019-04-16T04:56:32.319Z,16.00
2019-04-16T04:58:56.798Z,14.47
2019-04-16T05:01:25.755Z,11.22
2019-04-16T05:04:02.026Z,12.05
2019-04-16T05:06:38.721Z,12.43
2019-04-16T05:09:07.862Z,12.35
2019-04-16T05:11:36.773Z,11.80
2019-04-16T05:14:07.318Z,14.73
2019-04-16T05:16:36.204Z,14.00
2019-04-16T05:19:05.162Z,12.47
2019-04-16T05:21:34.055Z,13.93
2019-04-16T05:24:03.019Z,15.05
2019-04-16T05:26:33.623Z,12.82
2019-04-16T05:29:16.088Z,12.58
2019-04-16T05:31:43.420Z,14.43
2019-04-16T05:34:18.281Z,15.90
2019-04-16T05:36:48.152Z,13.85
2019-04-16T05:39:17.294Z,16.00
2019-04-16T05:41:46.291Z,14.60
2019-04-16T05:44:15.205Z,14.30
2019-04-16T05:46:46.687Z,13.90
2019-04-16T05:49:14.775Z,13.45
2019-04-16T05:51:43.705Z,15.93
2019-04-16T05:54:16.870Z,13.03
2019-04-16T05:56:47.421Z,15.75
2019-04-16T05:59:16.364Z,12.18
2019-04-16T06:01:47.000Z,13.88
2019-04-16T06:04:17.436Z,15.03
2019-04-16T06:06:46.750Z,12.98
2019-04-16T06:09:16.195Z,14.55
2019-04-16T06:11:45.723Z,15.32
2019-04-16T06:14:34.760Z,16.80
2019-04-16T06:17:08.106Z,15.68
2019-04-16T06:23:39.381Z,13.58
2019-04-16T06:26:14.731Z,14.43
2019-04-16T06:28:55.083Z,12.98
2019-04-16T06:31:23.849Z,12.40
2019-04-16T06:37:23.384Z,12.90
2019-04-16T06:40:08.903Z,12.43
2019-04-16T06:42:54.839Z,12.33
2019-04-16T06:45:25.532Z,14.43
2019-04-16T06:48:04.871Z,13.48
2019-04-16T06:50:39.544Z,13.68
2019-04-16T06:53:09.218Z,15.98
2019-04-16T06:55:53.729Z,14.35
2019-04-16T06:58:29.908Z,14.78
2019-04-16T07:01:06.753Z,13.70
2019-04-16T07:03:38.726Z,13.43
2019-04-16T07:06:12.135Z,13.83
2019-04-16T07:08:49.877Z,14.58
2019-04-16T07:11:26.737Z,14.73
2019-04-16T07:13:55.700Z,12.30
2019-04-16T07:16:28.912Z,13.50
2019-04-16T07:18:56.833Z,15.55
2019-04-16T07:21:25.720Z,15.38
2019-04-16T07:23:57.984Z,13.50
2019-04-16T07:26:25.739Z,15.10
2019-04-16T07:29:11.595Z,15.78
2019-04-16T07:31:42.289Z,14.40
2019-04-16T07:34:21.911Z,13.08
2019-04-16T07:36:52.582Z,13.62
2019-04-16T07:39:29.690Z,17.12
2019-04-16T07:42:14.122Z,15.60
2019-04-16T07:45:03.731Z,16.12
2019-04-16T07:47:43.098Z,14.35
2019-04-16T07:50:32.282Z,15.18
2019-04-16T07:53:02.251Z,14.43
2019-04-16T07:55:41.400Z,14.00
2019-04-16T07:58:10.303Z,16.02
2019-04-16T08:00:41.289Z,17.85
2019-04-16T08:03:10.181Z,17.57
2019-04-16T08:05:41.259Z,16.37
2019-04-16T08:08:09.750Z,17.32
2019-04-16T08:10:58.526Z,16.15
2019-04-16T08:17:05.078Z,17.60
2019-04-16T09:30:46.683Z,16.48
2019-04-16T09:33:09.250Z,15.85
2019-04-16T09:39:24.893Z,14.07
2019-04-16T09:42:59.531Z,16.25
2019-04-16T09:45:11.596Z,15.00
2019-04-16T09:48:08.221Z,14.58
2019-04-16T09:50:48.080Z,14.65
2019-04-16T10:05:35.767Z,15.05
2019-04-16T10:08:44.540Z,14.20
2019-04-16T10:14:10.343Z,14.35
2019-04-16T10:16:55.471Z,14.53
2019-04-16T10:27:15.167Z,14.18
2019-04-16T10:28:29.428Z,16.00
2019-04-16T10:31:28.261Z,14.18
2019-04-16T10:33:56.821Z,16.02
2019-04-16T10:36:39.286Z,12.82
2019-04-16T10:39:37.092Z,13.65
2019-04-16T10:42:32.559Z,13.53
2019-04-16T10:45:35.552Z,14.43
2019-04-16T10:48:37.683Z,13.90
2019-04-16T10:51:03.894Z,15.72
2019-04-16T10:53:40.558Z,14.68
2019-04-16T10:56:23.736Z,15.00
2019-04-16T10:59:13.361Z,14.80
2019-04-16T11:02:19.383Z,13.20
2019-04-16T11:05:08.130Z,13.55
2019-04-16T11:07:44.010Z,15.18
2019-04-16T11:10:46.725Z,11.75
2019-04-16T11:13:38.098Z,13.35
2019-04-16T11:16:19.733Z,13.38
2019-04-16T11:21:53.244Z,12.05
2019-04-16T11:24:31.216Z,10.60
2019-04-16T11:27:07.533Z,13.30
2019-04-16T11:32:25.218Z,11.63
2019-04-16T11:35:01.192Z,11.90
2019-04-16T11:37:44.436Z,11.05
2019-04-16T11:43:00.615Z,12.40
2019-04-16T11:45:35.271Z,10.68
2019-04-16T11:48:06.208Z,12.55
2019-04-16T11:53:40.798Z,11.22
2019-04-16T11:56:22.646Z,9.98
2019-04-16T11:59:07.231Z,11.80
2019-04-16T12:01:52.959Z,10.20
2019-04-16T12:04:28.222Z,10.20
2019-04-16T12:07:21.835Z,12.05
2019-04-16T12:10:13.787Z,11.85
2019-04-16T12:13:07.114Z,11.65
2019-04-16T12:15:56.157Z,12.30
2019-04-16T12:18:33.914Z,11.55
2019-04-16T12:21:12.656Z,11.45
2019-04-16T12:24:11.670Z,11.28
2019-04-16T12:26:47.772Z,11.25
2019-04-16T12:29:25.477Z,9.85
2019-04-16T12:32:19.958Z,10.70
2019-04-16T12:34:57.009Z,9.90
2019-04-16T12:37:46.416Z,12.40
2019-04-16T12:40:21.180Z,10.00
2019-04-16T12:42:58.970Z,9.45
2019-04-16T12:45:46.035Z,10.85
2019-04-16T12:48:44.539Z,10.13
2019-04-16T12:51:33.052Z,9.78
2019-04-16T12:54:39.779Z,9.90
2019-04-16T12:57:14.929Z,9.75
2019-04-16T12:59:54.763Z,10.25
2019-04-16T13:02:46.862Z,9.15
2019-04-16T13:05:21.754Z,10.28
2019-04-16T13:08:09.112Z,10.40
2019-04-16T13:10:44.513Z,10.15
2019-04-16T13:13:36.543Z,9.53
2019-04-16T13:16:17.313Z,9.73
2019-04-16T13:18:53.621Z,8.23
2019-04-16T13:21:26.954Z,10.55
2019-04-16T13:24:09.854Z,10.28
2019-04-16T13:26:44.647Z,10.18
2019-04-16T13:29:22.739Z,10.53
2019-04-16T13:31:53.605Z,10.28
2019-04-16T13:34:34.813Z,10.68
2019-04-16T13:37:04.177Z,9.13
2019-04-16T13:39:53.060Z,9.08
2019-04-16T13:42:24.147Z,10.70
2019-04-16T13:44:57.849Z,10.43
2019-04-16T13:47:37.854Z,9.98
2019-04-16T13:50:15.136Z,10.32
2019-04-16T13:52:52.001Z,10.75
2019-04-16T13:55:26.105Z,9.98
2019-04-16T13:58:05.238Z,11.45
2019-04-16T14:00:42.015Z,10.48
2019-04-16T14:03:23.719Z,10.28
2019-04-16T14:05:50.823Z,9.78
2019-04-16T14:08:29.747Z,11.10
2019-04-16T14:11:06.100Z,10.98
2019-04-16T14:13:36.507Z,10.78
2019-04-16T14:16:11.408Z,9.23
2019-04-16T14:18:37.833Z,11.10
2019-04-16T14:21:09.755Z,9.90
2019-04-16T14:25:23.193Z,9.98
2019-04-16T14:42:58.234Z,11.80
2019-04-16T14:43:58.836Z,9.55
2019-04-16T14:46:31.515Z,11.00
2019-04-16T14:49:04.897Z,11.25
2019-04-16T14:51:40.341Z,10.13
2019-04-16T14:54:24.050Z,11.73
2019-04-16T14:57:10.986Z,12.37
2019-04-16T14:59:43.859Z,11.05
2019-04-16T15:02:19.977Z,11.35
2019-04-16T15:05:05.499Z,10.88
2019-04-16T15:07:47.864Z,10.65
2019-04-16T15:10:37.649Z,10.13
2019-04-16T15:13:16.822Z,9.38
2019-04-16T15:16:05.479Z,8.18
2019-04-16T15:18:27.879Z,12.60
2019-04-16T15:21:12.391Z,10.40
2019-04-16T15:23:43.205Z,11.88
2019-04-16T15:26:16.845Z,10.45
2019-04-16T15:28:47.493Z,10.60
2019-04-16T15:31:33.709Z,10.23
2019-04-16T15:34:16.319Z,11.03
2019-04-16T15:36:55.071Z,9.98
2019-04-16T15:39:25.046Z,11.73
2019-04-16T15:42:17.468Z,8.75
2019-04-16T15:44:46.134Z,11.38
2019-04-16T15:47:32.386Z,10.25
2019-04-16T15:50:10.487Z,11.40
2019-04-16T15:52:46.269Z,9.38
2019-04-16T15:55:16.245Z,9.80
2019-04-16T15:57:55.855Z,10.23
2019-04-16T16:00:44.545Z,10.88
2019-04-16T16:03:31.593Z,9.23
2019-04-16T16:06:11.382Z,10.43
2019-04-16T16:08:44.913Z,9.80
2019-04-16T16:11:17.173Z,9.73
2019-04-16T16:13:46.130Z,10.13
2019-04-16T16:16:17.961Z,8.15
2019-04-16T16:18:45.584Z,9.30
2019-04-16T16:21:14.532Z,8.40
2019-04-16T16:23:43.619Z,8.73
2019-04-16T16:26:12.889Z,8.23
2019-04-16T16:28:41.863Z,8.13
2019-04-16T16:31:10.814Z,8.75
2019-04-16T16:33:39.769Z,8.25
2019-04-16T16:36:08.757Z,7.55
2019-04-16T16:38:37.727Z,8.15
2019-04-16T16:41:06.755Z,8.48
2019-04-16T16:43:35.633Z,8.25
2019-04-16T16:46:22.176Z,10.05
2019-04-16T16:49:09.943Z,7.60
2019-04-16T16:51:40.543Z,8.25
2019-04-16T16:54:11.122Z,7.17
2019-04-16T16:57:07.400Z,6.30
2019-04-16T16:59:34.934Z,8.63
2019-04-16T17:02:20.552Z,7.47
2019-04-16T17:04:54.325Z,7.97
2019-04-16T17:07:23.404Z,7.50
2019-04-16T17:09:52.338Z,7.25
2019-04-16T17:12:21.239Z,7.55
2019-04-16T17:14:50.231Z,6.90
2019-04-16T17:17:19.362Z,7.80
2019-04-16T17:19:50.671Z,8.03
2019-04-16T17:22:19.053Z,7.45
2019-04-16T17:24:48.035Z,8.05
2019-04-16T17:27:17.075Z,7.40
2019-04-16T17:29:46.589Z,7.90
2019-04-16T17:32:16.536Z,6.65
2019-04-16T17:34:45.552Z,7.22
2019-04-16T17:37:14.524Z,5.47
2019-04-16T17:39:52.079Z,7.45
2019-04-16T17:42:43.443Z,6.35
2019-04-16T17:45:30.828Z,7.17
2019-04-16T17:48:07.181Z,6.20
2019-04-16T17:53:35.099Z,7.55
2019-04-16T17:59:31.953Z,5.87
2019-04-16T18:02:18.646Z,5.05
2019-04-16T18:04:52.306Z,5.28
2019-04-16T18:07:39.772Z,6.12
2019-04-16T18:10:26.850Z,5.33
2019-04-16T18:12:57.472Z,6.17
2019-04-16T18:15:42.529Z,5.58
2019-04-16T18:18:25.301Z,5.03
2019-04-16T18:21:01.768Z,5.55
2019-04-16T18:23:32.297Z,5.17
2019-04-16T18:26:18.198Z,5.20
2019-04-16T18:28:54.868Z,5.40
2019-04-16T18:31:39.313Z,5.47
2019-04-16T18:34:26.634Z,7.37
2019-04-16T18:37:00.554Z,5.00
2019-04-16T18:39:31.584Z,5.35
2019-04-16T18:42:04.879Z,6.50
2019-04-16T18:44:38.253Z,5.15
2019-04-16T18:47:17.707Z,6.67
2019-04-16T18:49:48.444Z,5.35
2019-04-16T18:52:17.433Z,5.33
2019-04-16T18:54:49.370Z,6.78
2019-04-16T18:57:17.229Z,4.62
2019-04-16T18:59:46.279Z,5.78
2019-04-16T19:02:15.347Z,5.80
2019-04-16T19:04:44.442Z,6.10
2019-04-16T19:07:13.536Z,5.78
2019-04-16T19:09:42.470Z,5.42
2019-04-16T19:12:11.933Z,5.05
2019-04-16T19:14:40.919Z,5.37
2019-04-16T19:17:09.917Z,6.65
2019-04-16T19:19:44.525Z,5.45
2019-04-16T19:22:09.880Z,5.45
2019-04-16T19:24:38.863Z,6.22
2019-04-16T19:27:08.139Z,5.85
2019-04-16T19:29:37.642Z,6.37
2019-04-16T19:32:06.737Z,5.33
2019-04-16T19:34:40.983Z,5.62
2019-04-16T19:37:06.567Z,6.92
2019-04-16T19:39:35.660Z,7.45
2019-04-16T19:42:04.755Z,5.42
2019-04-16T19:44:39.647Z,5.65
2019-04-16T19:47:05.197Z,5.28
2019-04-16T19:49:34.498Z,6.90
2019-04-16T19:52:03.593Z,5.12
2019-04-16T19:54:32.698Z,5.50
2019-04-16T19:57:01.997Z,5.70
2019-04-16T19:59:31.704Z,5.67
2019-04-16T20:02:01.718Z,5.55
2019-04-16T20:04:31.336Z,7.08
2019-04-16T20:07:01.894Z,5.97
2019-04-16T20:09:31.153Z,5.85
2019-04-16T20:12:00.359Z,5.42
2019-04-16T20:14:29.746Z,5.75
2019-04-16T20:16:58.841Z,5.70
2019-04-16T20:19:28.248Z,6.08
2019-04-16T20:21:57.440Z,5.65
2019-04-16T20:24:26.535Z,5.00
2019-04-16T20:26:55.833Z,6.72
2019-04-16T20:29:25.750Z,6.10
2019-04-16T20:31:55.472Z,6.03
2019-04-16T20:34:24.757Z,5.20
2019-04-16T20:36:55.851Z,5.53
2019-04-16T20:39:24.818Z,5.62
2019-04-16T20:41:58.595Z,5.80
2019-04-16T20:44:24.633Z,5.30
2019-04-16T20:46:53.832Z,6.37
2019-04-16T20:49:23.218Z,4.72
2019-04-16T20:51:52.312Z,4.90
2019-04-16T20:54:21.433Z,5.30
2019-04-16T20:56:53.322Z,4.60
2019-04-16T20:59:21.437Z,4.47
2019-04-16T21:01:50.335Z,6.20
2019-04-16T21:04:19.526Z,5.33
2019-04-16T21:07:01.675Z,5.10
2019-04-16T21:09:30.985Z,4.60
2019-04-16T21:12:00.092Z,4.53
2019-04-16T21:14:29.321Z,6.05
2019-04-16T21:16:58.515Z,5.78
2019-04-16T21:19:46.390Z,6.05
2019-04-16T21:22:15.586Z,5.25
2019-04-16T21:24:45.327Z,5.58
2019-04-16T21:27:14.268Z,4.35
2019-04-16T21:29:43.391Z,6.58
2019-04-16T21:32:16.769Z,5.80
2019-04-16T21:34:49.520Z,3.72
2019-04-16T21:37:23.133Z,4.00
2019-04-16T21:39:59.802Z,6.67
2019-04-16T21:42:31.626Z,4.80
2019-04-16T21:45:00.646Z,5.45
2019-04-16T21:47:29.739Z,4.90
2019-04-16T21:50:00.268Z,5.17
2019-04-16T21:52:29.365Z,4.95
2019-04-16T21:55:03.037Z,5.17
2019-04-16T21:57:30.217Z,4.30
2019-04-16T21:59:59.805Z,4.72
2019-04-16T22:02:34.533Z,4.22
2019-04-16T22:05:02.825Z,4.78
2019-04-16T22:07:32.345Z,4.33
2019-04-16T22:10:02.082Z,4.28
2019-04-16T22:12:31.243Z,4.78
2019-04-16T22:15:00.331Z,4.97
2019-04-16T22:17:29.377Z,5.58
2019-04-16T22:20:03.138Z,5.05
2019-04-16T22:22:29.155Z,4.03
2019-04-16T22:24:58.437Z,5.12
2019-04-16T22:27:27.545Z,3.92
2019-04-16T22:29:56.849Z,6.17
2019-04-16T22:32:27.059Z,5.90
2019-04-16T22:34:57.288Z,5.08
2019-04-16T22:37:26.293Z,5.42
2019-04-16T22:39:59.369Z,5.97
2019-04-16T22:42:30.637Z,5.28
2019-04-16T22:45:17.830Z,6.70
2019-04-16T22:47:51.442Z,5.25
2019-04-16T22:50:20.389Z,5.25
2019-04-16T22:52:49.414Z,5.47
2019-04-16T22:55:18.307Z,5.33
2019-04-16T22:57:47.298Z,5.30
2019-04-16T23:00:30.320Z,4.75
2019-04-16T23:02:59.313Z,5.15
2019-04-16T23:05:30.758Z,5.05
2019-04-16T23:07:59.142Z,5.92
2019-04-16T23:10:28.118Z,4.73
2019-04-16T23:13:00.714Z,4.97
2019-04-16T23:15:28.474Z,5.00
2019-04-16T23:17:58.048Z,5.42
2019-04-16T23:20:29.571Z,5.00
2019-04-16T23:22:58.224Z,4.17
2019-04-16T23:25:28.104Z,4.50
2019-04-16T23:27:57.752Z,4.90
2019-04-16T23:30:27.157Z,4.60
2019-04-16T23:32:59.048Z,4.60
2019-04-16T23:35:27.194Z,5.37
2019-04-16T23:37:59.243Z,5.67
2019-04-16T23:40:27.023Z,5.37
2019-04-16T23:43:00.394Z,5.10
2019-04-16T23:45:37.089Z,6.58
2019-04-16T23:48:07.801Z,5.55
2019-04-16T23:50:45.395Z,4.85
2019-04-16T23:53:13.976Z,4.95
2019-04-16T23:55:50.454Z,5.90
2019-04-16T23:58:21.111Z,4.85
